sensor_id;sensor_type;location;lat;lon;timestamp;P1;durP1;ratioP1;P2;durP2;ratioP2
62931;SDS011;49037;41.898;25.004;2023-07-31T00:01:18;4.40;;;2.60;;
62931;SDS011;49037;41.898;25.004;2023-07-31T00:03:43;3.03;;;2.60;;
62931;SDS011;49037;41.898;25.004;2023-07-31T00:06:09;4.72;;;2.83;;
62931;SDS011;49037;41.898;25.004;2023-07-31T00:08:34;5.45;;;3.10;;
62931;SDS011;49037;41.898;25.004;2023-07-31T00:13:17;5.18;;;3.58;;
62931;SDS011;49037;41.898;25.004;2023-07-31T00:15:42;4.07;;;3.03;;
62931;SDS011;49037;41.898;25.004;2023-07-31T00:18:08;4.10;;;3.08;;
62931;SDS011;49037;41.898;25.004;2023-07-31T00:20:33;3.92;;;2.75;;
62931;SDS011;49037;41.898;25.004;2023-07-31T00:23:00;2.85;;;2.65;;
62931;SDS011;49037;41.898;25.004;2023-07-31T00:25:25;4.15;;;2.95;;
62931;SDS011;49037;41.898;25.004;2023-07-31T00:27:51;5.30;;;3.03;;
62931;SDS011;49037;41.898;25.004;2023-07-31T00:30:16;3.10;;;2.65;;
62931;SDS011;49037;41.898;25.004;2023-07-31T00:32:42;3.92;;;2.72;;
62931;SDS011;49037;41.898;25.004;2023-07-31T00:35:07;6.22;;;2.25;;
62931;SDS011;49037;41.898;25.004;2023-07-31T00:37:45;2.85;;;2.40;;
62931;SDS011;49037;41.898;25.004;2023-07-31T00:40:11;2.05;;;1.85;;
62931;SDS011;49037;41.898;25.004;2023-07-31T00:42:36;2.28;;;2.08;;
62931;SDS011;49037;41.898;25.004;2023-07-31T00:45:17;3.20;;;2.10;;
62931;SDS011;49037;41.898;25.004;2023-07-31T00:48:57;3.72;;;2.30;;
62931;SDS011;49037;41.898;25.004;2023-07-31T00:51:27;5.13;;;2.08;;
62931;SDS011;49037;41.898;25.004;2023-07-31T00:53:53;2.20;;;2.00;;
62931;SDS011;49037;41.898;25.004;2023-07-31T00:56:54;2.88;;;2.30;;
62931;SDS011;49037;41.898;25.004;2023-07-31T00:59:20;4.80;;;2.00;;
62931;SDS011;49037;41.898;25.004;2023-07-31T01:01:45;3.92;;;2.17;;
62931;SDS011;49037;41.898;25.004;2023-07-31T01:09:35;4.38;;;2.30;;
62931;SDS011;49037;41.898;25.004;2023-07-31T01:13:34;2.50;;;2.30;;
62931;SDS011;49037;41.898;25.004;2023-07-31T01:16:00;2.28;;;2.08;;
62931;SDS011;49037;41.898;25.004;2023-07-31T01:18:26;2.40;;;2.20;;
62931;SDS011;49037;41.898;25.004;2023-07-31T01:23:00;5.00;;;2.60;;
62931;SDS011;49037;41.898;25.004;2023-07-31T01:28:04;3.80;;;2.42;;
62931;SDS011;49037;41.898;25.004;2023-07-31T01:30:41;2.65;;;2.38;;
62931;SDS011;49037;41.898;25.004;2023-07-31T01:33:09;3.05;;;2.40;;
62931;SDS011;49037;41.898;25.004;2023-07-31T01:35:36;4.18;;;2.42;;
62931;SDS011;49037;41.898;25.004;2023-07-31T01:38:02;3.97;;;2.45;;
62931;SDS011;49037;41.898;25.004;2023-07-31T01:40:29;5.70;;;2.65;;
62931;SDS011;49037;41.898;25.004;2023-07-31T01:42:55;3.60;;;2.45;;
62931;SDS011;49037;41.898;25.004;2023-07-31T01:46:18;2.42;;;2.20;;
62931;SDS011;49037;41.898;25.004;2023-07-31T01:48:43;2.75;;;2.20;;
62931;SDS011;49037;41.898;25.004;2023-07-31T01:51:09;2.55;;;2.30;;
62931;SDS011;49037;41.898;25.004;2023-07-31T01:53:34;3.10;;;2.20;;
62931;SDS011;49037;41.898;25.004;2023-07-31T01:56:00;2.83;;;2.40;;
62931;SDS011;49037;41.898;25.004;2023-07-31T01:58:25;2.50;;;2.30;;
62931;SDS011;49037;41.898;25.004;2023-07-31T02:00:51;2.72;;;2.30;;
62931;SDS011;49037;41.898;25.004;2023-07-31T02:03:16;3.50;;;2.65;;
62931;SDS011;49037;41.898;25.004;2023-07-31T02:05:48;3.60;;;2.50;;
62931;SDS011;49037;41.898;25.004;2023-07-31T02:10:26;2.88;;;2.50;;
62931;SDS011;49037;41.898;25.004;2023-07-31T02:14:55;4.82;;;2.72;;
62931;SDS011;49037;41.898;25.004;2023-07-31T02:17:24;2.70;;;2.30;;
62931;SDS011;49037;41.898;25.004;2023-07-31T02:19:50;3.83;;;2.75;;
62931;SDS011;49037;41.898;25.004;2023-07-31T02:22:15;2.58;;;2.38;;
62931;SDS011;49037;41.898;25.004;2023-07-31T02:24:41;3.33;;;2.80;;
62931;SDS011;49037;41.898;25.004;2023-07-31T02:27:06;2.50;;;2.28;;
62931;SDS011;49037;41.898;25.004;2023-07-31T02:30:44;4.55;;;2.65;;
62931;SDS011;49037;41.898;25.004;2023-07-31T02:33:11;2.78;;;2.40;;
62931;SDS011;49037;41.898;25.004;2023-07-31T02:35:36;5.10;;;2.95;;
62931;SDS011;49037;41.898;25.004;2023-07-31T02:38:02;2.72;;;2.42;;
62931;SDS011;49037;41.898;25.004;2023-07-31T02:40:27;3.15;;;2.83;;
62931;SDS011;49037;41.898;25.004;2023-07-31T02:44:07;3.35;;;2.60;;
62931;SDS011;49037;41.898;25.004;2023-07-31T02:46:33;3.08;;;2.50;;
62931;SDS011;49037;41.898;25.004;2023-07-31T02:51:01;3.92;;;2.55;;
62931;SDS011;49037;41.898;25.004;2023-07-31T02:53:27;11.90;;;3.72;;
62931;SDS011;49037;41.898;25.004;2023-07-31T02:55:52;3.35;;;2.72;;
62931;SDS011;49037;41.898;25.004;2023-07-31T03:00:47;3.88;;;2.63;;
62931;SDS011;49037;41.898;25.004;2023-07-31T03:03:12;3.75;;;2.70;;
62931;SDS011;49037;41.898;25.004;2023-07-31T03:06:50;3.47;;;2.70;;
62931;SDS011;49037;41.898;25.004;2023-07-31T03:09:39;4.15;;;3.08;;
62931;SDS011;49037;41.898;25.004;2023-07-31T03:12:04;3.63;;;3.30;;
62931;SDS011;49037;41.898;25.004;2023-07-31T03:14:30;4.45;;;2.92;;
62931;SDS011;49037;41.898;25.004;2023-07-31T03:22:07;4.78;;;3.10;;
62931;SDS011;49037;41.898;25.004;2023-07-31T03:28:55;4.90;;;3.13;;
62931;SDS011;49037;41.898;25.004;2023-07-31T03:31:20;5.53;;;3.30;;
62931;SDS011;49037;41.898;25.004;2023-07-31T03:33:46;3.53;;;2.97;;
62931;SDS011;49037;41.898;25.004;2023-07-31T03:36:11;4.43;;;2.97;;
62931;SDS011;49037;41.898;25.004;2023-07-31T03:38:37;3.92;;;3.10;;
62931;SDS011;49037;41.898;25.004;2023-07-31T03:41:02;3.65;;;2.90;;
62931;SDS011;49037;41.898;25.004;2023-07-31T03:47:26;5.18;;;3.40;;
62931;SDS011;49037;41.898;25.004;2023-07-31T03:49:51;4.97;;;2.90;;
62931;SDS011;49037;41.898;25.004;2023-07-31T03:54:47;4.50;;;2.90;;
62931;SDS011;49037;41.898;25.004;2023-07-31T03:59:18;3.28;;;2.97;;
62931;SDS011;49037;41.898;25.004;2023-07-31T04:03:20;6.05;;;3.15;;
62931;SDS011;49037;41.898;25.004;2023-07-31T04:05:46;3.35;;;3.05;;
62931;SDS011;49037;41.898;25.004;2023-07-31T04:08:11;5.22;;;3.22;;
62931;SDS011;49037;41.898;25.004;2023-07-31T04:10:36;3.88;;;3.22;;
62931;SDS011;49037;41.898;25.004;2023-07-31T04:13:02;3.33;;;2.80;;
62931;SDS011;49037;41.898;25.004;2023-07-31T04:15:27;4.28;;;3.25;;
62931;SDS011;49037;41.898;25.004;2023-07-31T04:17:53;3.97;;;3.25;;
62931;SDS011;49037;41.898;25.004;2023-07-31T04:20:18;4.07;;;3.10;;
62931;SDS011;49037;41.898;25.004;2023-07-31T04:22:44;5.03;;;3.25;;
62931;SDS011;49037;41.898;25.004;2023-07-31T04:26:24;4.80;;;3.25;;
62931;SDS011;49037;41.898;25.004;2023-07-31T04:28:52;5.72;;;3.50;;
62931;SDS011;49037;41.898;25.004;2023-07-31T04:31:47;7.85;;;3.92;;
62931;SDS011;49037;41.898;25.004;2023-07-31T04:34:13;11.30;;;4.93;;
62931;SDS011;49037;41.898;25.004;2023-07-31T04:36:38;14.52;;;4.75;;
62931;SDS011;49037;41.898;25.004;2023-07-31T04:39:04;7.93;;;4.57;;
62931;SDS011;49037;41.898;25.004;2023-07-31T04:41:29;13.25;;;5.00;;
62931;SDS011;49037;41.898;25.004;2023-07-31T04:43:57;14.02;;;5.15;;
62931;SDS011;49037;41.898;25.004;2023-07-31T04:46:25;14.65;;;5.18;;
62931;SDS011;49037;41.898;25.004;2023-07-31T04:48:50;10.75;;;4.85;;
62931;SDS011;49037;41.898;25.004;2023-07-31T04:51:16;11.70;;;4.80;;
62931;SDS011;49037;41.898;25.004;2023-07-31T04:53:41;13.73;;;5.32;;
62931;SDS011;49037;41.898;25.004;2023-07-31T04:56:15;7.55;;;4.57;;
62931;SDS011;49037;41.898;25.004;2023-07-31T04:58:41;5.47;;;4.90;;
62931;SDS011;49037;41.898;25.004;2023-07-31T05:01:09;8.60;;;5.03;;
62931;SDS011;49037;41.898;25.004;2023-07-31T05:03:37;15.65;;;5.30;;
62931;SDS011;49037;41.898;25.004;2023-07-31T05:06:02;9.27;;;4.45;;
62931;SDS011;49037;41.898;25.004;2023-07-31T05:11:24;11.25;;;5.40;;
62931;SDS011;49037;41.898;25.004;2023-07-31T05:13:55;11.07;;;4.68;;
62931;SDS011;49037;41.898;25.004;2023-07-31T05:16:20;10.95;;;5.13;;
62931;SDS011;49037;41.898;25.004;2023-07-31T05:18:46;7.50;;;4.70;;
62931;SDS011;49037;41.898;25.004;2023-07-31T05:21:11;10.23;;;4.97;;
62931;SDS011;49037;41.898;25.004;2023-07-31T05:23:36;6.90;;;4.07;;
62931;SDS011;49037;41.898;25.004;2023-07-31T05:28:21;7.75;;;4.90;;
62931;SDS011;49037;41.898;25.004;2023-07-31T05:30:46;6.35;;;4.45;;
62931;SDS011;49037;41.898;25.004;2023-07-31T05:33:12;6.55;;;4.40;;
62931;SDS011;49037;41.898;25.004;2023-07-31T05:36:52;7.45;;;4.68;;
62931;SDS011;49037;41.898;25.004;2023-07-31T05:43:40;6.70;;;4.82;;
62931;SDS011;49037;41.898;25.004;2023-07-31T05:47:30;12.75;;;5.78;;
62931;SDS011;49037;41.898;25.004;2023-07-31T05:49:55;6.95;;;4.70;;
62931;SDS011;49037;41.898;25.004;2023-07-31T05:52:21;7.10;;;4.88;;
62931;SDS011;49037;41.898;25.004;2023-07-31T05:54:46;7.45;;;5.40;;
62931;SDS011;49037;41.898;25.004;2023-07-31T05:57:12;9.07;;;5.47;;
62931;SDS011;49037;41.898;25.004;2023-07-31T06:02:05;7.88;;;4.60;;
62931;SDS011;49037;41.898;25.004;2023-07-31T06:04:31;8.98;;;5.03;;
62931;SDS011;49037;41.898;25.004;2023-07-31T06:06:56;6.22;;;4.60;;
62931;SDS011;49037;41.898;25.004;2023-07-31T06:14:01;5.50;;;4.53;;
62931;SDS011;49037;41.898;25.004;2023-07-31T06:20:29;7.63;;;5.00;;
62931;SDS011;49037;41.898;25.004;2023-07-31T06:22:54;5.32;;;4.57;;
62931;SDS011;49037;41.898;25.004;2023-07-31T06:25:20;7.57;;;5.40;;
62931;SDS011;49037;41.898;25.004;2023-07-31T06:27:45;9.20;;;5.07;;
62931;SDS011;49037;41.898;25.004;2023-07-31T06:30:11;6.78;;;5.38;;
62931;SDS011;49037;41.898;25.004;2023-07-31T06:33:35;5.80;;;4.55;;
62931;SDS011;49037;41.898;25.004;2023-07-31T06:36:01;7.05;;;5.05;;
62931;SDS011;49037;41.898;25.004;2023-07-31T06:38:27;7.50;;;4.68;;
62931;SDS011;49037;41.898;25.004;2023-07-31T06:40:52;5.20;;;4.70;;
62931;SDS011;49037;41.898;25.004;2023-07-31T06:43:18;6.95;;;5.13;;
62931;SDS011;49037;41.898;25.004;2023-07-31T06:45:44;5.75;;;5.15;;
62931;SDS011;49037;41.898;25.004;2023-07-31T06:48:10;5.30;;;4.53;;
62931;SDS011;49037;41.898;25.004;2023-07-31T06:50:36;5.25;;;4.75;;
62931;SDS011;49037;41.898;25.004;2023-07-31T06:53:02;5.88;;;4.72;;
62931;SDS011;49037;41.898;25.004;2023-07-31T06:55:27;6.60;;;5.47;;
62931;SDS011;49037;41.898;25.004;2023-07-31T06:57:53;6.10;;;5.43;;
62931;SDS011;49037;41.898;25.004;2023-07-31T07:00:20;7.60;;;5.38;;
62931;SDS011;49037;41.898;25.004;2023-07-31T07:02:47;6.30;;;5.15;;
62931;SDS011;49037;41.898;25.004;2023-07-31T07:05:20;7.72;;;5.03;;
62931;SDS011;49037;41.898;25.004;2023-07-31T07:07:45;7.43;;;5.20;;
62931;SDS011;49037;41.898;25.004;2023-07-31T07:13:11;6.15;;;5.10;;
62931;SDS011;49037;41.898;25.004;2023-07-31T07:17:45;6.68;;;4.95;;
62931;SDS011;49037;41.898;25.004;2023-07-31T07:20:12;7.68;;;4.95;;
62931;SDS011;49037;41.898;25.004;2023-07-31T07:22:37;6.32;;;4.80;;
62931;SDS011;49037;41.898;25.004;2023-07-31T07:25:03;5.68;;;4.90;;
62931;SDS011;49037;41.898;25.004;2023-07-31T07:27:29;6.13;;;5.15;;
62931;SDS011;49037;41.898;25.004;2023-07-31T07:29:55;7.85;;;5.15;;
62931;SDS011;49037;41.898;25.004;2023-07-31T07:32:20;8.52;;;5.55;;
62931;SDS011;49037;41.898;25.004;2023-07-31T07:34:47;8.65;;;5.13;;
62931;SDS011;49037;41.898;25.004;2023-07-31T07:37:13;6.70;;;4.78;;
62931;SDS011;49037;41.898;25.004;2023-07-31T07:39:38;8.68;;;5.25;;
62931;SDS011;49037;41.898;25.004;2023-07-31T07:42:04;5.63;;;5.05;;
62931;SDS011;49037;41.898;25.004;2023-07-31T07:44:30;6.70;;;5.10;;
62931;SDS011;49037;41.898;25.004;2023-07-31T07:49:13;8.32;;;5.72;;
62931;SDS011;49037;41.898;25.004;2023-07-31T07:51:38;7.22;;;5.90;;
62931;SDS011;49037;41.898;25.004;2023-07-31T07:54:03;8.55;;;6.38;;
62931;SDS011;49037;41.898;25.004;2023-07-31T07:56:29;9.40;;;6.30;;
62931;SDS011;49037;41.898;25.004;2023-07-31T08:00:50;10.18;;;5.78;;
62931;SDS011;49037;41.898;25.004;2023-07-31T08:03:16;11.85;;;6.65;;
62931;SDS011;49037;41.898;25.004;2023-07-31T08:08:05;10.02;;;6.65;;
62931;SDS011;49037;41.898;25.004;2023-07-31T08:10:31;9.18;;;6.68;;
62931;SDS011;49037;41.898;25.004;2023-07-31T08:12:56;9.95;;;6.65;;
62931;SDS011;49037;41.898;25.004;2023-07-31T08:16:16;7.50;;;6.10;;
62931;SDS011;49037;41.898;25.004;2023-07-31T08:20:11;9.52;;;6.97;;
62931;SDS011;49037;41.898;25.004;2023-07-31T08:22:37;7.75;;;6.60;;
62931;SDS011;49037;41.898;25.004;2023-07-31T08:25:02;8.90;;;6.50;;
62931;SDS011;49037;41.898;25.004;2023-07-31T08:27:28;10.57;;;7.22;;
62931;SDS011;49037;41.898;25.004;2023-07-31T08:29:53;11.50;;;7.60;;
62931;SDS011;49037;41.898;25.004;2023-07-31T08:32:19;9.90;;;7.70;;
62931;SDS011;49037;41.898;25.004;2023-07-31T08:34:44;13.10;;;9.60;;
62931;SDS011;49037;41.898;25.004;2023-07-31T08:37:10;11.00;;;8.43;;
62931;SDS011;49037;41.898;25.004;2023-07-31T08:41:57;11.50;;;8.43;;
62931;SDS011;49037;41.898;25.004;2023-07-31T08:44:23;10.40;;;8.38;;
62931;SDS011;49037;41.898;25.004;2023-07-31T08:46:49;12.85;;;9.30;;
62931;SDS011;49037;41.898;25.004;2023-07-31T08:49:15;12.13;;;9.93;;
62931;SDS011;49037;41.898;25.004;2023-07-31T08:51:44;12.25;;;9.73;;
62931;SDS011;49037;41.898;25.004;2023-07-31T08:54:11;12.32;;;10.23;;
62931;SDS011;49037;41.898;25.004;2023-07-31T08:56:37;12.70;;;9.77;;
62931;SDS011;49037;41.898;25.004;2023-07-31T08:59:04;20.60;;;10.57;;
62931;SDS011;49037;41.898;25.004;2023-07-31T09:01:30;13.02;;;10.85;;
62931;SDS011;49037;41.898;25.004;2023-07-31T09:04:03;15.40;;;10.57;;
62931;SDS011;49037;41.898;25.004;2023-07-31T09:06:29;15.40;;;11.15;;
62931;SDS011;49037;41.898;25.004;2023-07-31T09:11:18;12.18;;;9.90;;
62931;SDS011;49037;41.898;25.004;2023-07-31T09:13:46;14.15;;;10.77;;
62931;SDS011;49037;41.898;25.004;2023-07-31T09:16:13;13.13;;;10.02;;
62931;SDS011;49037;41.898;25.004;2023-07-31T09:18:56;13.23;;;10.38;;
62931;SDS011;49037;41.898;25.004;2023-07-31T09:21:23;14.00;;;10.90;;
62931;SDS011;49037;41.898;25.004;2023-07-31T09:23:50;16.88;;;9.88;;
62931;SDS011;49037;41.898;25.004;2023-07-31T09:26:32;12.48;;;9.98;;
62931;SDS011;49037;41.898;25.004;2023-07-31T09:29:01;12.95;;;9.68;;
62931;SDS011;49037;41.898;25.004;2023-07-31T09:31:32;13.38;;;9.77;;
62931;SDS011;49037;41.898;25.004;2023-07-31T09:34:07;12.32;;;9.80;;
62931;SDS011;49037;41.898;25.004;2023-07-31T09:36:43;13.98;;;10.50;;
62931;SDS011;49037;41.898;25.004;2023-07-31T09:39:10;15.20;;;11.02;;
62931;SDS011;49037;41.898;25.004;2023-07-31T09:41:40;15.60;;;11.60;;
62931;SDS011;49037;41.898;25.004;2023-07-31T09:44:09;15.50;;;11.32;;
62931;SDS011;49037;41.898;25.004;2023-07-31T09:46:38;13.80;;;11.30;;
62931;SDS011;49037;41.898;25.004;2023-07-31T09:51:37;14.35;;;11.10;;
62931;SDS011;49037;41.898;25.004;2023-07-31T09:54:08;13.38;;;10.45;;
62931;SDS011;49037;41.898;25.004;2023-07-31T09:57:17;20.38;;;11.38;;
62931;SDS011;49037;41.898;25.004;2023-07-31T09:59:47;13.98;;;10.02;;
62931;SDS011;49037;41.898;25.004;2023-07-31T10:02:23;14.95;;;10.50;;
62931;SDS011;49037;41.898;25.004;2023-07-31T10:04:56;14.13;;;11.25;;
62931;SDS011;49037;41.898;25.004;2023-07-31T10:07:26;15.07;;;10.85;;
62931;SDS011;49037;41.898;25.004;2023-07-31T10:09:55;14.27;;;11.55;;
62931;SDS011;49037;41.898;25.004;2023-07-31T10:12:25;14.55;;;11.73;;
62931;SDS011;49037;41.898;25.004;2023-07-31T10:14:56;16.40;;;12.18;;
62931;SDS011;49037;41.898;25.004;2023-07-31T10:17:38;15.68;;;11.35;;
62931;SDS011;49037;41.898;25.004;2023-07-31T10:20:03;15.25;;;12.30;;
62931;SDS011;49037;41.898;25.004;2023-07-31T10:22:31;16.00;;;11.98;;
62931;SDS011;49037;41.898;25.004;2023-07-31T10:24:57;15.25;;;12.88;;
62931;SDS011;49037;41.898;25.004;2023-07-31T10:27:24;14.68;;;11.77;;
62931;SDS011;49037;41.898;25.004;2023-07-31T10:29:50;14.55;;;11.63;;
62931;SDS011;49037;41.898;25.004;2023-07-31T10:32:18;15.68;;;12.23;;
62931;SDS011;49037;41.898;25.004;2023-07-31T10:34:48;13.63;;;11.43;;
62931;SDS011;49037;41.898;25.004;2023-07-31T10:37:21;14.27;;;11.35;;
62931;SDS011;49037;41.898;25.004;2023-07-31T10:40:17;15.68;;;11.00;;
62931;SDS011;49037;41.898;25.004;2023-07-31T10:42:54;14.80;;;11.70;;
62931;SDS011;49037;41.898;25.004;2023-07-31T10:48:12;14.90;;;11.43;;
62931;SDS011;49037;41.898;25.004;2023-07-31T10:50:52;13.77;;;11.15;;
62931;SDS011;49037;41.898;25.004;2023-07-31T10:53:28;14.75;;;11.32;;
62931;SDS011;49037;41.898;25.004;2023-07-31T10:55:59;14.20;;;11.45;;
62931;SDS011;49037;41.898;25.004;2023-07-31T10:58:25;14.48;;;11.35;;
62931;SDS011;49037;41.898;25.004;2023-07-31T11:00:51;13.35;;;10.80;;
62931;SDS011;49037;41.898;25.004;2023-07-31T11:03:24;15.45;;;11.52;;
62931;SDS011;49037;41.898;25.004;2023-07-31T11:06:03;14.35;;;11.77;;
62931;SDS011;49037;41.898;25.004;2023-07-31T11:08:30;15.02;;;11.00;;
62931;SDS011;49037;41.898;25.004;2023-07-31T11:13:31;12.93;;;10.57;;
62931;SDS011;49037;41.898;25.004;2023-07-31T11:15:58;13.35;;;10.80;;
62931;SDS011;49037;41.898;25.004;2023-07-31T11:18:24;15.35;;;11.43;;
62931;SDS011;49037;41.898;25.004;2023-07-31T11:20:52;15.85;;;11.68;;
62931;SDS011;49037;41.898;25.004;2023-07-31T11:23:18;12.57;;;10.77;;
62931;SDS011;49037;41.898;25.004;2023-07-31T11:25:44;13.82;;;10.50;;
62931;SDS011;49037;41.898;25.004;2023-07-31T11:28:13;14.30;;;11.55;;
62931;SDS011;49037;41.898;25.004;2023-07-31T11:30:43;13.52;;;11.63;;
62931;SDS011;49037;41.898;25.004;2023-07-31T11:33:20;14.52;;;10.90;;
62931;SDS011;49037;41.898;25.004;2023-07-31T11:35:47;12.85;;;11.45;;
62931;SDS011;49037;41.898;25.004;2023-07-31T11:38:24;13.82;;;12.27;;
62931;SDS011;49037;41.898;25.004;2023-07-31T11:40:51;13.50;;;11.55;;
62931;SDS011;49037;41.898;25.004;2023-07-31T11:43:20;15.23;;;11.57;;
62931;SDS011;49037;41.898;25.004;2023-07-31T11:45:49;15.77;;;11.55;;
62931;SDS011;49037;41.898;25.004;2023-07-31T11:48:20;14.70;;;10.98;;
62931;SDS011;49037;41.898;25.004;2023-07-31T11:50:46;19.88;;;11.70;;
62931;SDS011;49037;41.898;25.004;2023-07-31T11:53:12;12.85;;;10.65;;
62931;SDS011;49037;41.898;25.004;2023-07-31T11:55:38;15.45;;;11.25;;
62931;SDS011;49037;41.898;25.004;2023-07-31T11:58:04;14.70;;;11.90;;
62931;SDS011;49037;41.898;25.004;2023-07-31T12:00:30;13.32;;;11.77;;
62931;SDS011;49037;41.898;25.004;2023-07-31T12:02:56;14.60;;;11.20;;
62931;SDS011;49037;41.898;25.004;2023-07-31T12:05:22;15.38;;;11.63;;
62931;SDS011;49037;41.898;25.004;2023-07-31T12:07:52;13.02;;;11.30;;
62931;SDS011;49037;41.898;25.004;2023-07-31T12:10:23;13.65;;;11.00;;
62931;SDS011;49037;41.898;25.004;2023-07-31T12:13:10;16.77;;;11.23;;
62931;SDS011;49037;41.898;25.004;2023-07-31T12:15:43;15.95;;;12.18;;
62931;SDS011;49037;41.898;25.004;2023-07-31T12:18:15;14.98;;;10.77;;
62931;SDS011;49037;41.898;25.004;2023-07-31T12:20:49;13.80;;;11.15;;
62931;SDS011;49037;41.898;25.004;2023-07-31T12:23:24;12.88;;;10.98;;
62931;SDS011;49037;41.898;25.004;2023-07-31T12:28:35;13.35;;;10.90;;
62931;SDS011;49037;41.898;25.004;2023-07-31T12:31:05;11.93;;;9.75;;
62931;SDS011;49037;41.898;25.004;2023-07-31T12:33:32;12.98;;;10.30;;
62931;SDS011;49037;41.898;25.004;2023-07-31T12:35:59;14.32;;;10.75;;
62931;SDS011;49037;41.898;25.004;2023-07-31T12:38:26;13.10;;;10.50;;
62931;SDS011;49037;41.898;25.004;2023-07-31T12:40:51;17.50;;;11.65;;
62931;SDS011;49037;41.898;25.004;2023-07-31T12:43:17;12.68;;;9.40;;
62931;SDS011;49037;41.898;25.004;2023-07-31T12:45:42;12.68;;;8.85;;
62931;SDS011;49037;41.898;25.004;2023-07-31T12:48:08;11.70;;;8.52;;
62931;SDS011;49037;41.898;25.004;2023-07-31T12:50:34;12.32;;;8.68;;
62931;SDS011;49037;41.898;25.004;2023-07-31T12:53:01;9.52;;;7.95;;
62931;SDS011;49037;41.898;25.004;2023-07-31T12:55:28;10.57;;;7.90;;
62931;SDS011;49037;41.898;25.004;2023-07-31T12:57:56;13.48;;;9.70;;
62931;SDS011;49037;41.898;25.004;2023-07-31T13:00:22;11.02;;;8.85;;
62931;SDS011;49037;41.898;25.004;2023-07-31T13:02:47;10.50;;;7.22;;
62931;SDS011;49037;41.898;25.004;2023-07-31T13:05:13;8.98;;;7.47;;
62931;SDS011;49037;41.898;25.004;2023-07-31T13:07:41;10.20;;;7.45;;
62931;SDS011;49037;41.898;25.004;2023-07-31T13:10:06;9.93;;;8.20;;
62931;SDS011;49037;41.898;25.004;2023-07-31T13:12:32;11.15;;;8.10;;
62931;SDS011;49037;41.898;25.004;2023-07-31T13:14:58;13.07;;;7.22;;
62931;SDS011;49037;41.898;25.004;2023-07-31T13:17:24;8.70;;;7.43;;
62931;SDS011;49037;41.898;25.004;2023-07-31T13:19:49;9.90;;;7.50;;
62931;SDS011;49037;41.898;25.004;2023-07-31T13:22:14;10.07;;;7.45;;
62931;SDS011;49037;41.898;25.004;2023-07-31T13:24:40;6.18;;;5.57;;
62931;SDS011;49037;41.898;25.004;2023-07-31T13:27:06;7.40;;;5.93;;
62931;SDS011;49037;41.898;25.004;2023-07-31T13:29:31;6.45;;;5.63;;
62931;SDS011;49037;41.898;25.004;2023-07-31T13:31:57;6.40;;;5.80;;
62931;SDS011;49037;41.898;25.004;2023-07-31T13:34:23;6.30;;;5.70;;
62931;SDS011;49037;41.898;25.004;2023-07-31T13:36:49;7.13;;;5.07;;
62931;SDS011;49037;41.898;25.004;2023-07-31T13:39:14;6.93;;;6.10;;
62931;SDS011;49037;41.898;25.004;2023-07-31T13:41:39;7.15;;;5.68;;
62931;SDS011;49037;41.898;25.004;2023-07-31T13:44:05;6.65;;;5.75;;
62931;SDS011;49037;41.898;25.004;2023-07-31T13:46:30;6.22;;;5.45;;
62931;SDS011;49037;41.898;25.004;2023-07-31T13:48:57;10.73;;;6.43;;
62931;SDS011;49037;41.898;25.004;2023-07-31T13:51:31;7.78;;;6.38;;
62931;SDS011;49037;41.898;25.004;2023-07-31T13:56:23;8.93;;;6.38;;
62931;SDS011;49037;41.898;25.004;2023-07-31T13:58:51;7.18;;;6.25;;
62931;SDS011;49037;41.898;25.004;2023-07-31T14:01:16;7.40;;;6.65;;
62931;SDS011;49037;41.898;25.004;2023-07-31T14:03:42;7.97;;;6.30;;
62931;SDS011;49037;41.898;25.004;2023-07-31T14:06:07;9.18;;;7.03;;
62931;SDS011;49037;41.898;25.004;2023-07-31T14:09:19;8.38;;;6.78;;
62931;SDS011;49037;41.898;25.004;2023-07-31T14:11:47;7.45;;;6.60;;
62931;SDS011;49037;41.898;25.004;2023-07-31T14:14:12;9.38;;;7.63;;
62931;SDS011;49037;41.898;25.004;2023-07-31T14:16:38;9.35;;;7.07;;
62931;SDS011;49037;41.898;25.004;2023-07-31T14:19:04;8.63;;;7.13;;
62931;SDS011;49037;41.898;25.004;2023-07-31T14:21:30;7.85;;;6.60;;
62931;SDS011;49037;41.898;25.004;2023-07-31T14:23:55;8.23;;;7.32;;
62931;SDS011;49037;41.898;25.004;2023-07-31T14:26:20;8.57;;;7.13;;
62931;SDS011;49037;41.898;25.004;2023-07-31T14:28:46;7.78;;;6.88;;
62931;SDS011;49037;41.898;25.004;2023-07-31T14:31:11;8.63;;;7.20;;
62931;SDS011;49037;41.898;25.004;2023-07-31T14:33:37;8.18;;;7.00;;
62931;SDS011;49037;41.898;25.004;2023-07-31T14:36:05;9.15;;;7.45;;
62931;SDS011;49037;41.898;25.004;2023-07-31T14:38:30;8.23;;;6.90;;
62931;SDS011;49037;41.898;25.004;2023-07-31T14:40:58;7.30;;;5.60;;
62931;SDS011;49037;41.898;25.004;2023-07-31T14:43:23;6.28;;;5.68;;
62931;SDS011;49037;41.898;25.004;2023-07-31T14:45:49;7.68;;;5.90;;
62931;SDS011;49037;41.898;25.004;2023-07-31T14:48:14;6.10;;;5.50;;
62931;SDS011;49037;41.898;25.004;2023-07-31T14:50:40;6.80;;;6.07;;
62931;SDS011;49037;41.898;25.004;2023-07-31T14:53:05;7.13;;;6.43;;
62931;SDS011;49037;41.898;25.004;2023-07-31T14:55:31;7.82;;;6.28;;
62931;SDS011;49037;41.898;25.004;2023-07-31T14:57:57;9.93;;;7.28;;
62931;SDS011;49037;41.898;25.004;2023-07-31T15:00:22;7.68;;;6.28;;
62931;SDS011;49037;41.898;25.004;2023-07-31T15:02:49;9.38;;;6.78;;
62931;SDS011;49037;41.898;25.004;2023-07-31T15:05:14;7.43;;;6.10;;
62931;SDS011;49037;41.898;25.004;2023-07-31T15:07:40;7.68;;;5.78;;
62931;SDS011;49037;41.898;25.004;2023-07-31T15:10:11;6.85;;;5.85;;
62931;SDS011;49037;41.898;25.004;2023-07-31T15:12:47;7.93;;;6.43;;
62931;SDS011;49037;41.898;25.004;2023-07-31T15:15:13;6.57;;;5.85;;
62931;SDS011;49037;41.898;25.004;2023-07-31T15:17:42;6.80;;;6.10;;
62931;SDS011;49037;41.898;25.004;2023-07-31T15:20:07;6.88;;;6.13;;
62931;SDS011;49037;41.898;25.004;2023-07-31T15:22:34;8.48;;;6.30;;
62931;SDS011;49037;41.898;25.004;2023-07-31T15:25:00;8.52;;;6.55;;
62931;SDS011;49037;41.898;25.004;2023-07-31T15:27:25;6.85;;;6.00;;
62931;SDS011;49037;41.898;25.004;2023-07-31T15:29:51;9.80;;;6.72;;
62931;SDS011;49037;41.898;25.004;2023-07-31T15:32:16;7.13;;;5.75;;
62931;SDS011;49037;41.898;25.004;2023-07-31T15:34:48;7.05;;;6.22;;
62931;SDS011;49037;41.898;25.004;2023-07-31T15:37:14;6.82;;;6.05;;
62931;SDS011;49037;41.898;25.004;2023-07-31T15:39:39;7.45;;;6.13;;
62931;SDS011;49037;41.898;25.004;2023-07-31T15:42:05;7.32;;;6.07;;
62931;SDS011;49037;41.898;25.004;2023-07-31T15:44:30;6.80;;;6.10;;
62931;SDS011;49037;41.898;25.004;2023-07-31T15:46:58;8.25;;;6.47;;
62931;SDS011;49037;41.898;25.004;2023-07-31T15:49:24;8.73;;;6.70;;
62931;SDS011;49037;41.898;25.004;2023-07-31T15:51:49;8.20;;;6.40;;
62931;SDS011;49037;41.898;25.004;2023-07-31T15:54:15;7.07;;;6.38;;
62931;SDS011;49037;41.898;25.004;2023-07-31T15:56:40;8.73;;;6.35;;
62931;SDS011;49037;41.898;25.004;2023-07-31T15:59:06;6.65;;;5.95;;
62931;SDS011;49037;41.898;25.004;2023-07-31T16:01:31;7.20;;;5.85;;
62931;SDS011;49037;41.898;25.004;2023-07-31T16:03:57;7.00;;;5.75;;
62931;SDS011;49037;41.898;25.004;2023-07-31T16:06:23;6.90;;;6.07;;
62931;SDS011;49037;41.898;25.004;2023-07-31T16:08:48;6.65;;;5.72;;
62931;SDS011;49037;41.898;25.004;2023-07-31T16:11:13;7.25;;;6.00;;
62931;SDS011;49037;41.898;25.004;2023-07-31T16:15:37;7.32;;;6.38;;